Terminal Aerodrome Forecast
Issued by NWS Salt Lake City, UT

Home | Current Version | Previous Version | Text Only | Print | Product List | Glossary On
Versions: 1 2 3 4 5 6 7 8 9 10 11 12 13 14 15 16 17 18 19 20 21 22 23 24 25 26 27
393
FTUS45 KSLC 050532
TAFCDC
TAF
KCDC 050532Z 0506/0606 15008KT P6SM BKN200
     FM051600 20014G22KT P6SM FEW140 SCT200
     FM051800 20024G34KT P6SM FEW140 SCT200
     FM060200 20011G22KT P6SM BKN200=

USA.gov is the U.S. government's official web portal to all federal, state and local government web resources and services.